Time;durP1;ratioP1;P1;durP2;ratioP2;P2;SDS_P1;SDS_P2;PMS_P1;PMS_P2;Temp;Humidity;BMP_temperature;BMP_pressure;BME280_temperature;BME280_humidity;BME280_pressure;Samples;Min_cycle;Max_cycle;Signal;HPM_P1;HPM_P2
2021/12/07 16:01:59;;;;;;;5.07;3.37;;;;;;;;;;5110909;27;20588;-73
2021/12/07 16:04:27;;;;;;;5.40;4.40;;;;;;;;;;5111044;28;20397;-71
2021/12/07 16:06:53;;;;;;;5.20;4.80;;;;;;;;;;5111133;28;20737;-73
2021/12/07 16:10:23;;;;;;;5.33;4.40;;;;;;;;;;5070707;28;20594;-70
2021/12/07 16:13:07;;;;;;;13.23;9.50;;;;;;;;;;5070585;28;20772;-70
2021/12/07 16:15:34;;;;;;;18.07;13.00;;;;;;;;;;5070409;28;20410;-70
2021/12/07 16:18:00;;;;;;;14.80;10.90;;;;;;;;;;5069853;28;20402;-71
2021/12/07 16:20:26;;;;;;;32.40;17.37;;;;;;;;;;5070420;28;20492;-70
2021/12/07 16:22:53;;;;;;;29.00;14.03;;;;;;;;;;5070443;28;20481;-70
2021/12/07 16:25:19;;;;;;;17.13;11.07;;;;;;;;;;5070207;28;20365;-71
2021/12/07 16:27:45;;;;;;;24.43;17.87;;;;;;;;;;5070204;28;20505;-70
2021/12/07 16:30:12;;;;;;;14.70;7.63;;;;;;;;;;5070292;28;20389;-70
2021/12/07 16:32:38;;;;;;;9.27;6.43;;;;;;;;;;5069641;28;20385;-70
2021/12/07 16:35:05;;;;;;;8.30;6.30;;;;;;;;;;5070278;28;20724;-70
2021/12/07 16:37:31;;;;;;;14.57;8.77;;;;;;;;;;5070033;28;20403;-70
2021/12/07 16:39:57;;;;;;;10.00;5.43;;;;;;;;;;5070024;28;20410;-69
2021/12/07 16:42:24;;;;;;;6.70;5.73;;;;;;;;;;5070035;28;20377;-69
2021/12/07 16:44:53;;;;;;;10.40;6.20;;;;;;;;;;5070285;28;20797;-72
2021/12/07 16:47:19;;;;;;;7.93;4.17;;;;;;;;;;5069312;28;20411;-70
2021/12/07 16:49:46;;;;;;;9.17;8.27;;;;;;;;;;5069738;28;20476;-71
2021/12/07 16:52:12;;;;;;;8.73;6.93;;;;;;;;;;5069918;28;20385;-67
2021/12/07 16:54:39;;;;;;;10.50;5.37;;;;;;;;;;5069842;28;20406;-70
2021/12/07 16:57:06;;;;;;;8.00;6.80;;;;;;;;;;5069688;28;20865;-68
2021/12/07 16:59:32;;;;;;;8.60;7.70;;;;;;;;;;5069715;28;20402;-68
2021/12/07 17:01:58;;;;;;;6.77;5.90;;;;;;;;;;5069161;28;20433;-69
2021/12/07 17:04:24;;;;;;;9.33;5.67;;;;;;;;;;5069555;28;20411;-70
2021/12/07 17:06:51;;;;;;;6.20;5.80;;;;;;;;;;5069555;28;20498;-71
2021/12/07 17:09:17;;;;;;;7.13;6.50;;;;;;;;;;5069272;28;20489;-71
2021/12/07 17:11:46;;;;;;;6.57;5.83;;;;;;;;;;5069245;28;20422;-70
2021/12/07 17:14:12;;;;;;;18.93;13.63;;;;;;;;;;5069509;28;20773;-73
2021/12/07 17:16:38;;;;;;;10.20;7.43;;;;;;;;;;5068709;28;20414;-71
2021/12/07 17:19:04;;;;;;;4.10;3.70;;;;;;;;;;5069269;28;20780;-71
2021/12/07 17:21:31;;;;;;;3.23;2.80;;;;;;;;;;5056293;28;20506;-74
2021/12/07 17:23:57;;;;;;;6.00;4.50;;;;;;;;;;5056048;28;20517;-70
2021/12/07 17:26:23;;;;;;;10.00;6.43;;;;;;;;;;5055935;28;20413;-73
2021/12/07 17:28:49;;;;;;;10.40;6.73;;;;;;;;;;5055822;28;20874;-70
2021/12/07 17:31:15;;;;;;;9.37;7.20;;;;;;;;;;5055240;28;20411;-69
2021/12/07 17:33:41;;;;;;;9.83;7.73;;;;;;;;;;5055771;28;20802;-70
2021/12/07 17:36:07;;;;;;;33.13;17.80;;;;;;;;;;5055840;28;20410;-70
2021/12/07 17:38:33;;;;;;;17.93;11.50;;;;;;;;;;5055636;28;20477;-70
2021/12/07 17:41:00;;;;;;;19.03;12.07;;;;;;;;;;5055646;28;20396;-74
2021/12/07 17:43:26;;;;;;;25.10;12.37;;;;;;;;;;5055587;28;20411;-72
2021/12/07 17:45:53;;;;;;;19.93;12.60;;;;;;;;;;5055566;28;20407;-67
2021/12/07 17:48:19;;;;;;;22.27;13.43;;;;;;;;;;5053662;28;20953;-72
2021/12/07 17:50:46;;;;;;;24.73;14.60;;;;;;;;;;5055648;28;20393;-72
2021/12/07 17:53:14;;;;;;;45.87;21.27;;;;;;;;;;5055713;28;20743;-71
2021/12/07 17:55:41;;;;;;;55.53;23.60;;;;;;;;;;5055447;28;20758;-73
2021/12/07 17:58:08;;;;;;;15.63;9.10;;;;;;;;;;5055372;28;20469;-74
2021/12/07 18:00:35;;;;;;;17.00;11.10;;;;;;;;;;5055311;28;20417;-73
2021/12/07 18:03:01;;;;;;;25.83;13.07;;;;;;;;;;5053540;28;20928;-73
2021/12/07 18:05:27;;;;;;;27.10;14.20;;;;;;;;;;5055051;28;20484;-71
2021/12/07 18:07:53;;;;;;;17.33;10.57;;;;;;;;;;5054916;28;20445;-71
2021/12/07 18:10:21;;;;;;;15.07;9.10;;;;;;;;;;5055058;28;20951;-70
2021/12/07 18:12:48;;;;;;;12.50;9.50;;;;;;;;;;5054930;28;20849;-72
2021/12/07 18:15:15;;;;;;;6.23;5.77;;;;;;;;;;5055263;28;20401;-70
2021/12/07 18:17:42;;;;;;;8.33;6.10;;;;;;;;;;5055353;28;20410;-72
2021/12/07 18:20:09;;;;;;;35.63;18.07;;;;;;;;;;5055181;28;20411;-72
2021/12/07 18:22:35;;;;;;;12.50;7.67;;;;;;;;;;5055034;28;20382;-70
2021/12/07 18:25:01;;;;;;;13.17;9.40;;;;;;;;;;5055017;28;20917;-73
2021/12/07 18:27:27;;;;;;;18.20;9.67;;;;;;;;;;5052937;28;20426;-72
2021/12/07 18:29:53;;;;;;;16.17;10.17;;;;;;;;;;5054856;28;20492;-71
2021/12/07 18:32:18;;;;;;;24.47;15.23;;;;;;;;;;5053851;28;20753;-71
2021/12/07 18:34:44;;;;;;;25.10;14.07;;;;;;;;;;5054932;28;20385;-72
2021/12/07 18:37:11;;;;;;;22.30;12.13;;;;;;;;;;5055089;28;20490;-71
2021/12/07 18:39:40;;;;;;;11.87;9.20;;;;;;;;;;5054713;28;20361;-71
2021/12/07 18:42:07;;;;;;;10.97;8.70;;;;;;;;;;5053701;28;20811;-73
2021/12/07 18:44:33;;;;;;;11.90;9.02;;;;;;;;;;5054664;28;20395;-72
2021/12/07 18:46:59;;;;;;;14.27;9.90;;;;;;;;;;5054578;28;20260;-73
2021/12/07 18:49:25;;;;;;;35.67;20.00;;;;;;;;;;5054498;28;20471;-71
2021/12/07 18:51:51;;;;;;;15.13;9.77;;;;;;;;;;5054571;28;20378;-67
2021/12/07 18:54:17;;;;;;;12.63;8.40;;;;;;;;;;5054450;28;20410;-68
2021/12/07 18:56:43;;;;;;;40.43;24.30;;;;;;;;;;5054381;28;20466;-69
2021/12/07 18:59:09;;;;;;;35.10;17.90;;;;;;;;;;5054339;28;20382;-71
2021/12/07 19:01:35;;;;;;;28.73;14.00;;;;;;;;;;5054204;28;20775;-70
2021/12/07 19:04:02;;;;;;;28.70;15.50;;;;;;;;;;5054265;28;20414;-71
2021/12/07 19:06:28;;;;;;;19.23;13.30;;;;;;;;;;5054285;28;20418;-69
2021/12/07 19:08:53;;;;;;;15.83;11.10;;;;;;;;;;5054047;28;20820;-74
2021/12/07 19:11:21;;;;;;;17.97;11.10;;;;;;;;;;5054219;28;20493;-72
2021/12/07 19:13:47;;;;;;;16.17;9.67;;;;;;;;;;5054092;28;20399;-72
2021/12/07 19:16:14;;;;;;;8.52;7.72;;;;;;;;;;5054076;28;20385;-72
2021/12/07 19:18:43;;;;;;;7.50;6.40;;;;;;;;;;5053996;28;20173;-68
2021/12/07 19:21:10;;;;;;;7.03;6.37;;;;;;;;;;5053887;28;20608;-72
2021/12/07 19:23:36;;;;;;;8.27;5.25;;;;;;;;;;5053852;28;20390;-73
2021/12/07 19:26:02;;;;;;;6.95;5.72;;;;;;;;;;5054115;28;20200;-72
2021/12/07 19:28:28;;;;;;;12.10;8.93;;;;;;;;;;5053863;28;20262;-74
2021/12/07 19:30:56;;;;;;;15.32;11.43;;;;;;;;;;5053779;28;20255;-71
2021/12/07 19:33:22;;;;;;;17.42;11.70;;;;;;;;;;5053805;28;20215;-74
2021/12/07 19:35:49;;;;;;;12.93;9.95;;;;;;;;;;5053838;28;20250;-71
2021/12/07 19:38:17;;;;;;;13.63;9.70;;;;;;;;;;5053672;28;20619;-72
2021/12/07 19:40:52;;;;;;;11.15;8.55;;;;;;;;;;5053664;28;20298;-73
2021/12/07 19:43:18;;;;;;;17.88;9.30;;;;;;;;;;5053547;28;20168;-71
2021/12/07 19:45:46;;;;;;;13.90;9.73;;;;;;;;;;5053599;28;20184;-67
2021/12/07 19:48:12;;;;;;;14.25;9.45;;;;;;;;;;5053606;28;20203;-69
2021/12/07 19:50:50;;;;;;;14.32;9.32;;;;;;;;;;5054016;28;20172;-67
2021/12/07 19:53:19;;;;;;;21.42;9.32;;;;;;;;;;5053792;28;20167;-67
2021/12/07 19:55:46;;;;;;;33.25;19.95;;;;;;;;;;5053634;28;20210;-67
2021/12/07 19:58:12;;;;;;;14.90;10.13;;;;;;;;;;5053738;28;20624;-66
2021/12/07 20:00:41;;;;;;;9.20;7.97;;;;;;;;;;5053576;28;20264;-67
2021/12/07 20:03:07;;;;;;;15.25;9.63;;;;;;;;;;5053469;28;20192;-66
2021/12/07 20:05:33;;;;;;;11.73;9.20;;;;;;;;;;5053445;28;20164;-68
2021/12/07 20:07:59;;;;;;;10.25;9.15;;;;;;;;;;5053128;28;20164;-67
2021/12/07 20:10:27;;;;;;;12.55;9.73;;;;;;;;;;5053294;28;20178;-67
2021/12/07 20:12:53;;;;;;;10.55;8.75;;;;;;;;;;5053341;28;20539;-67
2021/12/07 20:15:19;;;;;;;9.65;8.65;;;;;;;;;;5053245;28;20184;-65
2021/12/07 20:17:45;;;;;;;15.32;9.20;;;;;;;;;;5053225;28;20203;-65
2021/12/07 20:20:12;;;;;;;14.27;8.90;;;;;;;;;;5053215;28;20247;-66
2021/12/07 20:22:38;;;;;;;20.95;13.32;;;;;;;;;;5053248;28;20527;-66
2021/12/07 20:25:05;;;;;;;39.53;23.25;;;;;;;;;;5053442;28;20591;-67
2021/12/07 20:27:31;;;;;;;46.35;22.58;;;;;;;;;;5053412;28;20175;-66
2021/12/07 20:29:57;;;;;;;31.67;20.15;;;;;;;;;;5052989;28;20208;-66
2021/12/07 20:32:23;;;;;;;32.37;17.40;;;;;;;;;;5051877;28;20183;-68
2021/12/07 20:34:49;;;;;;;32.80;20.35;;;;;;;;;;5051915;28;20406;-67
2021/12/07 20:37:16;;;;;;;30.30;19.63;;;;;;;;;;5051794;28;20599;-70
2021/12/07 20:39:42;;;;;;;38.13;20.75;;;;;;;;;;5053128;28;20498;-69
2021/12/07 20:42:09;;;;;;;24.27;14.57;;;;;;;;;;5053121;28;20172;-67
2021/12/07 20:44:36;;;;;;;21.92;14.18;;;;;;;;;;5053104;28;20196;-67
2021/12/07 20:47:02;;;;;;;29.55;12.32;;;;;;;;;;5052958;28;20185;-67
2021/12/07 20:49:29;;;;;;;16.38;10.85;;;;;;;;;;5052856;28;20287;-67
2021/12/07 20:51:55;;;;;;;20.00;13.32;;;;;;;;;;5052841;28;20534;-66
2021/12/07 20:54:21;;;;;;;8.48;7.32;;;;;;;;;;5052993;28;20620;-67
2021/12/07 20:56:47;;;;;;;9.60;7.70;;;;;;;;;;5056218;28;20164;-66
2021/12/07 20:59:15;;;;;;;10.27;8.27;;;;;;;;;;5056690;28;20381;-66
2021/12/07 21:01:41;;;;;;;17.42;9.10;;;;;;;;;;5053258;28;20513;-66
2021/12/07 21:04:07;;;;;;;9.90;7.40;;;;;;;;;;5056283;28;20557;-67
2021/12/07 21:06:33;;;;;;;14.43;9.47;;;;;;;;;;5053490;28;20406;-68
2021/12/07 21:08:59;;;;;;;9.10;8.20;;;;;;;;;;5055971;28;20460;-67
2021/12/07 21:11:25;;;;;;;9.67;8.40;;;;;;;;;;5053370;28;20786;-70
2021/12/07 21:13:53;;;;;;;11.47;9.30;;;;;;;;;;5053857;28;20405;-67
2021/12/07 21:16:19;;;;;;;33.33;12.77;;;;;;;;;;5056215;28;20456;-66
2021/12/07 21:18:46;;;;;;;14.23;10.93;;;;;;;;;;5056265;28;20407;-69
2021/12/07 21:21:12;;;;;;;16.30;12.87;;;;;;;;;;5056334;28;20485;-67
2021/12/07 21:23:38;;;;;;;21.67;14.13;;;;;;;;;;5056278;28;20385;-75
2021/12/07 21:26:05;;;;;;;21.13;13.67;;;;;;;;;;5056201;28;20250;-74
2021/12/07 21:28:31;;;;;;;18.50;14.00;;;;;;;;;;5056204;28;20440;-74
2021/12/07 21:31:00;;;;;;;19.33;13.40;;;;;;;;;;5056087;28;20181;-73
2021/12/07 21:33:26;;;;;;;17.60;13.07;;;;;;;;;;5056136;28;20624;-69
2021/12/07 21:35:52;;;;;;;16.90;13.03;;;;;;;;;;5056117;28;20400;-69
2021/12/07 21:38:18;;;;;;;21.47;13.33;;;;;;;;;;5056015;28;20377;-69
2021/12/07 21:40:44;;;;;;;20.93;13.23;;;;;;;;;;5055919;28;20723;-69
2021/12/07 21:43:11;;;;;;;23.93;14.87;;;;;;;;;;5056177;28;20381;-69
2021/12/07 21:45:37;;;;;;;20.90;15.00;;;;;;;;;;5055804;28;20869;-70
2021/12/07 21:48:03;;;;;;;18.40;14.20;;;;;;;;;;5056089;28;20751;-70
2021/12/07 21:50:29;;;;;;;21.30;16.53;;;;;;;;;;5055873;28;20390;-70
2021/12/07 21:52:56;;;;;;;20.13;14.87;;;;;;;;;;5055747;28;20403;-69
2021/12/07 21:55:23;;;;;;;15.47;11.30;;;;;;;;;;5055682;28;20378;-67
2021/12/07 21:57:49;;;;;;;14.07;10.18;;;;;;;;;;5055665;28;20406;-69
2021/12/07 22:00:17;;;;;;;23.97;14.90;;;;;;;;;;5055527;28;20180;-67
2021/12/07 22:02:43;;;;;;;13.57;10.00;;;;;;;;;;5055530;28;20389;-67
2021/12/07 22:05:09;;;;;;;14.80;10.83;;;;;;;;;;5055479;28;20389;-66
2021/12/07 22:07:36;;;;;;;10.60;9.50;;;;;;;;;;5055317;28;20421;-68
2021/12/07 22:10:04;;;;;;;13.73;9.80;;;;;;;;;;5055153;28;20503;-71
2021/12/07 22:12:30;;;;;;;11.07;8.50;;;;;;;;;;5055288;28;20393;-69
2021/12/07 22:14:56;;;;;;;12.07;9.63;;;;;;;;;;5055483;28;20441;-73
2021/12/07 22:17:23;;;;;;;11.77;9.83;;;;;;;;;;5055282;28;20510;-70
2021/12/07 22:19:49;;;;;;;12.43;10.00;;;;;;;;;;5055283;28;20397;-70
2021/12/07 22:22:15;;;;;;;18.50;11.60;;;;;;;;;;5055148;28;20469;-70
2021/12/07 22:24:41;;;;;;;10.73;9.60;;;;;;;;;;5055148;28;20522;-66
2021/12/07 22:27:09;;;;;;;16.47;11.10;;;;;;;;;;5055129;28;20380;-65
2021/12/07 22:29:36;;;;;;;20.30;12.30;;;;;;;;;;5054970;28;20808;-65
2021/12/07 22:32:02;;;;;;;29.50;15.07;;;;;;;;;;5054967;28;20926;-66
2021/12/07 22:34:30;;;;;;;31.97;16.90;;;;;;;;;;5054950;28;20445;-63
2021/12/07 22:36:58;;;;;;;30.90;16.80;;;;;;;;;;5054947;28;20438;-65
2021/12/07 22:39:24;;;;;;;17.47;12.57;;;;;;;;;;5054800;28;20430;-65
2021/12/07 22:41:50;;;;;;;24.40;11.80;;;;;;;;;;5054779;28;20374;-66
2021/12/07 22:44:16;;;;;;;19.03;12.30;;;;;;;;;;5054653;28;20370;-65
2021/12/07 22:46:42;;;;;;;23.07;13.23;;;;;;;;;;5054622;28;20557;-65
2021/12/07 22:49:08;;;;;;;25.67;13.07;;;;;;;;;;5054544;28;20565;-65
2021/12/07 22:51:34;;;;;;;15.77;12.40;;;;;;;;;;5054574;28;20902;-65
2021/12/07 22:54:01;;;;;;;17.27;11.93;;;;;;;;;;5054531;28;20494;-65
2021/12/07 22:56:27;;;;;;;16.47;12.27;;;;;;;;;;5054734;28;20406;-67
2021/12/07 22:58:53;;;;;;;15.47;11.80;;;;;;;;;;5054502;28;20407;-68
2021/12/07 23:01:19;;;;;;;18.30;13.53;;;;;;;;;;5053210;28;20731;-70
2021/12/07 23:03:46;;;;;;;23.90;13.90;;;;;;;;;;5054332;28;20386;-71
2021/12/07 23:06:12;;;;;;;18.67;12.90;;;;;;;;;;5054361;28;20464;-68
2021/12/07 23:08:39;;;;;;;15.40;11.43;;;;;;;;;;5053985;28;20548;-65
2021/12/07 23:11:09;;;;;;;17.47;11.00;;;;;;;;;;5054179;28;20399;-71
2021/12/07 23:13:36;;;;;;;20.23;11.97;;;;;;;;;;5054277;28;20885;-68
2021/12/07 23:16:02;;;;;;;19.27;10.40;;;;;;;;;;5054038;28;20913;-64
2021/12/07 23:18:30;;;;;;;10.93;9.00;;;;;;;;;;5053483;28;20886;-64
2021/12/07 23:20:57;;;;;;;14.50;9.10;;;;;;;;;;5054011;28;20403;-66
2021/12/07 23:23:23;;;;;;;9.00;8.00;;;;;;;;;;5053986;28;20407;-66
2021/12/07 23:25:50;;;;;;;10.37;8.80;;;;;;;;;;5054004;28;20872;-65
2021/12/07 23:28:18;;;;;;;18.50;11.70;;;;;;;;;;5054072;28;20382;-65
2021/12/07 23:30:45;;;;;;;10.00;8.30;;;;;;;;;;5054045;28;20783;-65
2021/12/07 23:33:14;;;;;;;10.83;8.70;;;;;;;;;;5053811;28;20400;-65
2021/12/07 23:35:40;;;;;;;19.57;10.13;;;;;;;;;;5053810;28;20925;-65
2021/12/07 23:38:07;;;;;;;14.60;9.32;;;;;;;;;;5053686;28;20381;-66
2021/12/07 23:40:34;;;;;;;11.10;8.10;;;;;;;;;;5053742;28;20627;-67
2021/12/07 23:43:00;;;;;;;8.83;7.17;;;;;;;;;;5052405;28;20398;-67
2021/12/07 23:45:26;;;;;;;13.02;8.32;;;;;;;;;;5053875;28;20767;-71
2021/12/07 23:47:52;;;;;;;12.30;7.73;;;;;;;;;;5053593;28;20172;-73
2021/12/07 23:50:18;;;;;;;13.87;8.07;;;;;;;;;;5053506;28;20493;-72
2021/12/07 23:52:45;;;;;;;15.40;9.52;;;;;;;;;;5053563;28;20403;-74
2021/12/07 23:55:13;;;;;;;15.63;8.90;;;;;;;;;;5053380;28;20173;-74
2021/12/07 23:57:41;;;;;;;10.07;8.32;;;;;;;;;;5052032;28;20419;-71
